This demonstration page uses our WeatherBlox Daily Observations layout. Learn more.

39.01783, -85.05884

Hourly Observations for August 19, 2019

Temp ( °F °C ) Dew Point ( °F °C ) Humidity (%) Winds ( mph kmh ) Pressure ( in mb ) Visibility ( mi km ) Precip ( " mm )
12:52 am 00:52 Cloudy with Light Rain 75 23.9 64 17.8 69 69 VRB 3 6 29.97 1015 10 16.09344 0.001 0.001
1:52 am 01:52 Cloudy 72 22.2 65 18.3 79 79 Calm 29.97 1015 10 16.09344 0.001 0.001
2:52 am 02:52 Cloudy 74 23.3 65 18.3 74 74 N 7 11 29.94 1014 10 16.09344 0.001 0.001
3:52 am 03:52 Cloudy with Light Rain 74 23.3 65 18.3 74 74 Calm 29.94 1014 10 16.09344 0.001 0.001
4:52 am 04:52 Cloudy 71 21.7 66 18.9 84 84 SSW 5 7 29.94 1014 10 16.09344 0.001 0.001
5:52 am 05:52 Partly Cloudy 70 21.1 65 18.3 84 84 S 7 11 29.94 1014 10 16.09344 0 0
6:52 am 06:52 Mostly Clear 69 20.6 65 18.3 87 87 S 6 9 29.97 1015 10 16.09344 0 0
7:52 am 07:52 Sunny 72 22.2 66 18.9 82 82 S 6 9 30 1016 10 16.09344 0 0
8:52 am 08:52 Sunny 77 25 65 18.3 66 66 S 7 11 30 1016 10 16.09344 0 0
9:52 am 09:52 Sunny 82 27.8 66 18.9 58 58 S 5 7 30 1016 10 16.09344 0 0
10:52 am 10:52 Sunny 84 28.9 66 18.9 55 55 SSW 6 9 30 1016 10 16.09344 0 0
11:52 am 11:52 Mostly Sunny 87 30.6 67 19.4 51 51 VRB 5 7 30.03 1017 10 16.09344 0 0
12:52 pm 12:52 Mostly Sunny 88 31.1 68 20 52 52 Calm 30 1016 10 16.09344 0 0
1:52 pm 13:52 Partly Cloudy 90 32.2 68 20 48 48 S 7 11 30 1016 10 16.09344 0 0
2:52 pm 14:52 Mostly Cloudy 92 33.3 67 19.4 44 44 undefined N/A 30 1016 10 16.09344 0 0
3:52 pm 15:52 Mostly Sunny 93 33.9 67 19.4 42 42 VRB 7 11 29.97 1015 10 16.09344 0 0
4:52 pm 16:52 Partly Cloudy 93 33.9 66 18.9 41 41 SW 6 9 29.94 1014 10 16.09344 0 0
5:52 pm 17:52 Partly Cloudy 94 34.4 66 18.9 40 40 W 5 7 29.94 1014 10 16.09344 0 0
6:52 pm 18:52 Mostly Sunny 93 33.9 67 19.4 42 42 SW 6 9 29.94 1014 10 16.09344 0 0
7:52 pm 19:52 Mostly Sunny 89 31.7 68 20 50 50 N 7 11 29.94 1014 10 16.09344 0 0
8:52 pm 20:52 Mostly Clear 87 30.6 68 20 53 53 N 8 13 29.97 1015 10 16.09344 0 0
9:52 pm 21:52 Mostly Clear 86 30 69 20.6 57 57 N 7 11 29.97 1015 10 16.09344 0 0
10:52 pm 22:52 Mostly Clear 83 28.3 69 20.6 63 63 N 7 11 30 1016 10 16.09344 0 0
11:52 pm 23:52 Partly Cloudy 84 28.9 69 20.6 61 61 NNE 7 11 30 1016 10 16.09344 0 0

Powered by AerisWeather